sensor_id;sensor_type;location;lat;lon;timestamp;P1;durP1;ratioP1;P2;durP2;ratioP2
12844;SDS011;6489;48.508;9.206;2022-11-15T00:01:18;10.17;;;2.30;;
12844;SDS011;6489;48.508;9.206;2022-11-15T00:04:40;8.10;;;2.60;;
12844;SDS011;6489;48.508;9.206;2022-11-15T00:08:02;6.33;;;2.40;;
12844;SDS011;6489;48.508;9.206;2022-11-15T00:11:26;16.87;;;3.13;;
12844;SDS011;6489;48.508;9.206;2022-11-15T00:14:47;9.33;;;2.53;;
12844;SDS011;6489;48.508;9.206;2022-11-15T00:18:11;9.03;;;3.90;;
12844;SDS011;6489;48.508;9.206;2022-11-15T00:21:34;13.63;;;3.33;;
12844;SDS011;6489;48.508;9.206;2022-11-15T00:24:56;20.37;;;4.13;;
12844;SDS011;6489;48.508;9.206;2022-11-15T00:28:19;10.20;;;3.63;;
12844;SDS011;6489;48.508;9.206;2022-11-15T00:31:41;14.30;;;4.20;;
12844;SDS011;6489;48.508;9.206;2022-11-15T00:35:03;12.90;;;4.37;;
12844;SDS011;6489;48.508;9.206;2022-11-15T00:38:26;19.70;;;5.70;;
12844;SDS011;6489;48.508;9.206;2022-11-15T00:41:51;12.20;;;5.40;;
12844;SDS011;6489;48.508;9.206;2022-11-15T00:45:15;15.73;;;6.17;;
12844;SDS011;6489;48.508;9.206;2022-11-15T00:48:37;14.10;;;6.47;;
12844;SDS011;6489;48.508;9.206;2022-11-15T00:51:59;20.13;;;6.87;;
12844;SDS011;6489;48.508;9.206;2022-11-15T00:55:21;17.07;;;6.93;;
12844;SDS011;6489;48.508;9.206;2022-11-15T00:58:42;14.73;;;7.10;;
12844;SDS011;6489;48.508;9.206;2022-11-15T01:02:06;14.97;;;6.13;;
12844;SDS011;6489;48.508;9.206;2022-11-15T01:05:27;18.27;;;7.33;;
12844;SDS011;6489;48.508;9.206;2022-11-15T01:08:49;16.80;;;6.97;;
12844;SDS011;6489;48.508;9.206;2022-11-15T01:12:11;23.17;;;7.20;;
12844;SDS011;6489;48.508;9.206;2022-11-15T01:15:33;12.40;;;6.37;;
12844;SDS011;6489;48.508;9.206;2022-11-15T01:18:56;13.03;;;6.63;;
12844;SDS011;6489;48.508;9.206;2022-11-15T01:22:18;14.10;;;6.23;;
12844;SDS011;6489;48.508;9.206;2022-11-15T01:25:40;15.70;;;6.47;;
12844;SDS011;6489;48.508;9.206;2022-11-15T01:29:02;10.53;;;5.63;;
12844;SDS011;6489;48.508;9.206;2022-11-15T01:32:24;12.10;;;5.70;;
12844;SDS011;6489;48.508;9.206;2022-11-15T01:35:47;18.03;;;6.33;;
12844;SDS011;6489;48.508;9.206;2022-11-15T01:39:09;13.77;;;6.23;;
12844;SDS011;6489;48.508;9.206;2022-11-15T01:42:30;13.43;;;5.87;;
12844;SDS011;6489;48.508;9.206;2022-11-15T01:45:53;15.90;;;6.20;;
12844;SDS011;6489;48.508;9.206;2022-11-15T01:49:21;14.10;;;5.73;;
12844;SDS011;6489;48.508;9.206;2022-11-15T01:52:45;19.23;;;6.43;;
12844;SDS011;6489;48.508;9.206;2022-11-15T01:56:08;9.10;;;5.90;;
12844;SDS011;6489;48.508;9.206;2022-11-15T01:59:31;15.90;;;6.50;;
12844;SDS011;6489;48.508;9.206;2022-11-15T02:02:54;15.57;;;5.73;;
12844;SDS011;6489;48.508;9.206;2022-11-15T02:06:16;12.23;;;6.03;;
12844;SDS011;6489;48.508;9.206;2022-11-15T02:09:40;16.57;;;6.10;;
12844;SDS011;6489;48.508;9.206;2022-11-15T02:13:02;23.13;;;6.67;;
12844;SDS011;6489;48.508;9.206;2022-11-15T11:20:10;5.83;;;3.83;;
12844;SDS011;6489;48.508;9.206;2022-11-15T11:23:39;13.57;;;4.83;;
12844;SDS011;6489;48.508;9.206;2022-11-15T11:27:06;5.70;;;3.97;;
12844;SDS011;6489;48.508;9.206;2022-11-15T11:30:50;21.07;;;4.90;;
12844;SDS011;6489;48.508;9.206;2022-11-15T11:34:19;7.60;;;4.20;;
12844;SDS011;6489;48.508;9.206;2022-11-15T11:37:54;10.70;;;4.07;;
12844;SDS011;6489;48.508;9.206;2022-11-15T11:41:21;19.33;;;5.50;;
12844;SDS011;6489;48.508;9.206;2022-11-15T11:44:51;14.80;;;4.37;;
12844;SDS011;6489;48.508;9.206;2022-11-15T11:48:21;28.37;;;5.27;;
12844;SDS011;6489;48.508;9.206;2022-11-15T11:51:50;11.80;;;4.57;;
12844;SDS011;6489;48.508;9.206;2022-11-15T11:55:14;32.50;;;5.70;;
12844;SDS011;6489;48.508;9.206;2022-11-15T11:58:41;13.10;;;4.57;;
12844;SDS011;6489;48.508;9.206;2022-11-15T12:02:11;11.80;;;4.47;;
12844;SDS011;6489;48.508;9.206;2022-11-15T12:05:39;13.63;;;4.53;;
12844;SDS011;6489;48.508;9.206;2022-11-15T12:09:07;31.80;;;6.17;;
12844;SDS011;6489;48.508;9.206;2022-11-15T12:12:36;17.17;;;4.60;;
12844;SDS011;6489;48.508;9.206;2022-11-15T12:16:02;10.20;;;5.53;;
12844;SDS011;6489;48.508;9.206;2022-11-15T12:19:27;25.30;;;6.30;;
12844;SDS011;6489;48.508;9.206;2022-11-15T12:22:52;30.83;;;8.13;;
12844;SDS011;6489;48.508;9.206;2022-11-15T12:26:20;17.90;;;7.97;;
12844;SDS011;6489;48.508;9.206;2022-11-15T12:29:45;22.23;;;9.47;;
12844;SDS011;6489;48.508;9.206;2022-11-15T12:36:56;29.97;;;10.07;;
12844;SDS011;6489;48.508;9.206;2022-11-15T12:40:28;40.93;;;8.50;;
12844;SDS011;6489;48.508;9.206;2022-11-15T12:43:54;13.37;;;6.50;;
12844;SDS011;6489;48.508;9.206;2022-11-15T12:47:22;19.13;;;6.47;;
12844;SDS011;6489;48.508;9.206;2022-11-15T12:50:55;13.13;;;5.93;;
12844;SDS011;6489;48.508;9.206;2022-11-15T13:01:54;10.07;;;6.20;;
12844;SDS011;6489;48.508;9.206;2022-11-15T13:13:13;15.00;;;7.93;;
12844;SDS011;6489;48.508;9.206;2022-11-15T13:17:15;15.00;;;6.70;;
12844;SDS011;6489;48.508;9.206;2022-11-15T13:20:46;12.27;;;6.03;;
12844;SDS011;6489;48.508;9.206;2022-11-15T13:24:16;18.40;;;6.70;;
12844;SDS011;6489;48.508;9.206;2022-11-15T13:27:38;12.53;;;6.30;;
12844;SDS011;6489;48.508;9.206;2022-11-15T13:31:21;17.87;;;6.57;;
12844;SDS011;6489;48.508;9.206;2022-11-15T13:34:52;24.90;;;7.37;;
12844;SDS011;6489;48.508;9.206;2022-11-15T13:38:17;48.07;;;8.20;;
12844;SDS011;6489;48.508;9.206;2022-11-15T13:45:18;12.70;;;6.50;;
12844;SDS011;6489;48.508;9.206;2022-11-15T13:48:42;13.00;;;6.23;;
12844;SDS011;6489;48.508;9.206;2022-11-15T13:52:06;17.33;;;7.23;;
12844;SDS011;6489;48.508;9.206;2022-11-15T13:55:31;26.63;;;9.03;;
12844;SDS011;6489;48.508;9.206;2022-11-15T13:58:53;31.70;;;12.27;;
12844;SDS011;6489;48.508;9.206;2022-11-15T14:02:16;24.50;;;13.73;;
12844;SDS011;6489;48.508;9.206;2022-11-15T14:05:41;27.83;;;8.37;;
12844;SDS011;6489;48.508;9.206;2022-11-15T14:12:53;13.60;;;7.63;;
12844;SDS011;6489;48.508;9.206;2022-11-15T14:16:16;22.87;;;7.60;;
12844;SDS011;6489;48.508;9.206;2022-11-15T14:19:39;20.73;;;7.47;;
12844;SDS011;6489;48.508;9.206;2022-11-15T14:23:02;18.50;;;7.40;;
12844;SDS011;6489;48.508;9.206;2022-11-15T14:26:29;24.03;;;8.07;;
12844;SDS011;6489;48.508;9.206;2022-11-15T14:29:52;19.20;;;8.30;;
12844;SDS011;6489;48.508;9.206;2022-11-15T14:33:25;30.67;;;8.50;;
12844;SDS011;6489;48.508;9.206;2022-11-15T14:36:49;24.77;;;8.93;;
12844;SDS011;6489;48.508;9.206;2022-11-15T14:40:12;15.93;;;8.57;;
12844;SDS011;6489;48.508;9.206;2022-11-15T14:43:36;21.73;;;8.00;;
12844;SDS011;6489;48.508;9.206;2022-11-15T14:46:58;17.63;;;7.80;;
12844;SDS011;6489;48.508;9.206;2022-11-15T14:50:21;18.53;;;8.93;;
12844;SDS011;6489;48.508;9.206;2022-11-15T14:53:43;26.20;;;8.03;;
12844;SDS011;6489;48.508;9.206;2022-11-15T14:57:06;17.50;;;6.93;;
12844;SDS011;6489;48.508;9.206;2022-11-15T15:00:30;16.83;;;8.40;;
12844;SDS011;6489;48.508;9.206;2022-11-15T15:03:53;21.13;;;9.63;;
12844;SDS011;6489;48.508;9.206;2022-11-15T15:07:18;19.07;;;9.53;;
12844;SDS011;6489;48.508;9.206;2022-11-15T15:10:41;12.87;;;7.53;;
12844;SDS011;6489;48.508;9.206;2022-11-15T15:14:03;13.03;;;9.37;;
12844;SDS011;6489;48.508;9.206;2022-11-15T15:17:27;23.07;;;8.83;;
12844;SDS011;6489;48.508;9.206;2022-11-15T15:20:51;22.67;;;8.23;;
12844;SDS011;6489;48.508;9.206;2022-11-15T15:24:17;25.30;;;8.63;;
12844;SDS011;6489;48.508;9.206;2022-11-15T15:27:39;20.33;;;8.70;;
12844;SDS011;6489;48.508;9.206;2022-11-15T15:31:02;16.63;;;8.67;;
12844;SDS011;6489;48.508;9.206;2022-11-15T15:34:26;21.53;;;10.03;;
12844;SDS011;6489;48.508;9.206;2022-11-15T15:37:49;27.50;;;9.77;;
12844;SDS011;6489;48.508;9.206;2022-11-15T15:41:12;17.43;;;9.93;;
12844;SDS011;6489;48.508;9.206;2022-11-15T15:44:37;22.80;;;10.57;;
12844;SDS011;6489;48.508;9.206;2022-11-15T15:47:59;26.33;;;10.50;;
12844;SDS011;6489;48.508;9.206;2022-11-15T15:51:23;24.13;;;10.00;;
12844;SDS011;6489;48.508;9.206;2022-11-15T15:54:45;21.87;;;10.10;;
12844;SDS011;6489;48.508;9.206;2022-11-15T15:58:08;26.43;;;11.00;;
12844;SDS011;6489;48.508;9.206;2022-11-15T16:01:30;12.87;;;7.30;;
12844;SDS011;6489;48.508;9.206;2022-11-15T16:04:52;21.07;;;8.33;;
12844;SDS011;6489;48.508;9.206;2022-11-15T16:08:18;19.23;;;7.43;;
12844;SDS011;6489;48.508;9.206;2022-11-15T16:11:43;19.20;;;7.20;;
12844;SDS011;6489;48.508;9.206;2022-11-15T16:15:07;14.97;;;6.97;;
12844;SDS011;6489;48.508;9.206;2022-11-15T16:18:31;20.77;;;7.20;;
12844;SDS011;6489;48.508;9.206;2022-11-15T16:21:54;17.97;;;7.63;;
12844;SDS011;6489;48.508;9.206;2022-11-15T16:25:21;20.50;;;7.67;;
12844;SDS011;6489;48.508;9.206;2022-11-15T16:28:43;15.97;;;5.10;;
12844;SDS011;6489;48.508;9.206;2022-11-15T16:32:05;8.03;;;3.80;;
12844;SDS011;6489;48.508;9.206;2022-11-15T16:35:28;25.30;;;5.53;;
12844;SDS011;6489;48.508;9.206;2022-11-15T16:38:50;16.10;;;6.30;;
12844;SDS011;6489;48.508;9.206;2022-11-15T16:42:14;21.57;;;5.10;;
12844;SDS011;6489;48.508;9.206;2022-11-15T16:45:36;15.07;;;4.40;;
12844;SDS011;6489;48.508;9.206;2022-11-15T16:49:07;19.77;;;4.97;;
12844;SDS011;6489;48.508;9.206;2022-11-15T16:52:31;10.33;;;6.87;;
12844;SDS011;6489;48.508;9.206;2022-11-15T16:55:53;12.37;;;4.93;;
12844;SDS011;6489;48.508;9.206;2022-11-15T16:59:19;16.80;;;4.83;;
12844;SDS011;6489;48.508;9.206;2022-11-15T17:02:42;18.03;;;5.33;;
12844;SDS011;6489;48.508;9.206;2022-11-15T17:06:07;10.93;;;4.80;;
12844;SDS011;6489;48.508;9.206;2022-11-15T17:09:30;9.43;;;5.07;;
12844;SDS011;6489;48.508;9.206;2022-11-15T17:12:54;12.43;;;5.10;;
12844;SDS011;6489;48.508;9.206;2022-11-15T17:16:19;17.30;;;5.87;;
12844;SDS011;6489;48.508;9.206;2022-11-15T17:19:44;16.87;;;5.90;;
12844;SDS011;6489;48.508;9.206;2022-11-15T17:23:08;7.57;;;5.60;;
12844;SDS011;6489;48.508;9.206;2022-11-15T17:26:31;6.23;;;4.40;;
12844;SDS011;6489;48.508;9.206;2022-11-15T17:29:53;9.40;;;5.17;;
12844;SDS011;6489;48.508;9.206;2022-11-15T17:33:17;13.13;;;5.37;;
12844;SDS011;6489;48.508;9.206;2022-11-15T17:36:39;13.17;;;5.60;;
12844;SDS011;6489;48.508;9.206;2022-11-15T17:40:01;15.97;;;5.53;;
12844;SDS011;6489;48.508;9.206;2022-11-15T17:43:24;17.47;;;5.77;;
12844;SDS011;6489;48.508;9.206;2022-11-15T17:46:46;29.27;;;6.60;;
12844;SDS011;6489;48.508;9.206;2022-11-15T17:50:11;16.60;;;5.50;;
12844;SDS011;6489;48.508;9.206;2022-11-15T17:53:33;9.50;;;4.83;;
12844;SDS011;6489;48.508;9.206;2022-11-15T17:56:58;50.20;;;7.33;;
12844;SDS011;6489;48.508;9.206;2022-11-15T18:00:20;15.63;;;4.77;;
12844;SDS011;6489;48.508;9.206;2022-11-15T18:03:42;11.37;;;4.57;;
12844;SDS011;6489;48.508;9.206;2022-11-15T18:07:06;11.80;;;4.00;;
12844;SDS011;6489;48.508;9.206;2022-11-15T18:10:30;11.60;;;4.37;;
12844;SDS011;6489;48.508;9.206;2022-11-15T18:13:53;18.17;;;5.03;;
12844;SDS011;6489;48.508;9.206;2022-11-15T18:17:16;27.13;;;5.80;;
12844;SDS011;6489;48.508;9.206;2022-11-15T18:20:39;11.60;;;4.37;;
12844;SDS011;6489;48.508;9.206;2022-11-15T18:24:03;8.00;;;3.47;;
12844;SDS011;6489;48.508;9.206;2022-11-15T18:27:25;16.60;;;4.27;;
12844;SDS011;6489;48.508;9.206;2022-11-15T18:30:48;20.07;;;4.83;;
12844;SDS011;6489;48.508;9.206;2022-11-15T18:34:10;29.63;;;5.40;;
12844;SDS011;6489;48.508;9.206;2022-11-15T18:37:32;23.33;;;6.07;;
12844;SDS011;6489;48.508;9.206;2022-11-15T18:41:03;12.33;;;4.97;;
12844;SDS011;6489;48.508;9.206;2022-11-15T18:44:27;10.27;;;4.50;;
12844;SDS011;6489;48.508;9.206;2022-11-15T18:47:49;9.23;;;4.73;;
12844;SDS011;6489;48.508;9.206;2022-11-15T18:51:12;15.83;;;5.40;;
12844;SDS011;6489;48.508;9.206;2022-11-15T18:54:37;6.73;;;4.30;;
12844;SDS011;6489;48.508;9.206;2022-11-15T18:58:02;6.33;;;4.03;;
12844;SDS011;6489;48.508;9.206;2022-11-15T19:01:24;14.50;;;4.90;;
12844;SDS011;6489;48.508;9.206;2022-11-15T19:04:48;19.17;;;5.17;;
12844;SDS011;6489;48.508;9.206;2022-11-15T19:08:10;7.17;;;4.50;;
12844;SDS011;6489;48.508;9.206;2022-11-15T19:11:33;8.80;;;4.03;;
12844;SDS011;6489;48.508;9.206;2022-11-15T19:14:59;33.83;;;6.97;;
12844;SDS011;6489;48.508;9.206;2022-11-15T19:18:22;15.83;;;4.60;;
12844;SDS011;6489;48.508;9.206;2022-11-15T19:21:45;11.23;;;3.90;;
12844;SDS011;6489;48.508;9.206;2022-11-15T19:25:07;5.97;;;3.47;;
12844;SDS011;6489;48.508;9.206;2022-11-15T19:28:30;17.80;;;4.47;;
12844;SDS011;6489;48.508;9.206;2022-11-15T19:31:54;19.63;;;4.47;;
12844;SDS011;6489;48.508;9.206;2022-11-15T19:35:16;20.30;;;4.53;;
12844;SDS011;6489;48.508;9.206;2022-11-15T19:38:39;15.63;;;3.87;;
12844;SDS011;6489;48.508;9.206;2022-11-15T19:42:02;9.63;;;3.53;;
12844;SDS011;6489;48.508;9.206;2022-11-15T19:45:26;10.63;;;3.23;;
12844;SDS011;6489;48.508;9.206;2022-11-15T19:48:50;27.03;;;4.47;;
12844;SDS011;6489;48.508;9.206;2022-11-15T19:52:12;6.90;;;3.63;;
12844;SDS011;6489;48.508;9.206;2022-11-15T19:55:36;5.97;;;2.97;;
12844;SDS011;6489;48.508;9.206;2022-11-15T19:58:58;18.33;;;4.13;;
12844;SDS011;6489;48.508;9.206;2022-11-15T20:02:20;8.07;;;3.20;;
12844;SDS011;6489;48.508;9.206;2022-11-15T20:05:44;4.43;;;2.67;;
12844;SDS011;6489;48.508;9.206;2022-11-15T20:09:07;6.33;;;3.00;;
12844;SDS011;6489;48.508;9.206;2022-11-15T20:12:29;13.07;;;2.90;;
12844;SDS011;6489;48.508;9.206;2022-11-15T20:15:54;54.37;;;5.47;;
12844;SDS011;6489;48.508;9.206;2022-11-15T20:19:19;12.10;;;2.80;;
12844;SDS011;6489;48.508;9.206;2022-11-15T20:22:45;9.37;;;2.77;;
12844;SDS011;6489;48.508;9.206;2022-11-15T20:26:08;10.73;;;2.90;;
12844;SDS011;6489;48.508;9.206;2022-11-15T20:29:31;4.43;;;2.70;;
12844;SDS011;6489;48.508;9.206;2022-11-15T20:32:54;22.10;;;4.60;;
12844;SDS011;6489;48.508;9.206;2022-11-15T20:36:17;10.00;;;4.37;;
12844;SDS011;6489;48.508;9.206;2022-11-15T20:39:41;16.80;;;6.90;;
12844;SDS011;6489;48.508;9.206;2022-11-15T20:43:03;14.57;;;5.20;;
12844;SDS011;6489;48.508;9.206;2022-11-15T20:46:26;9.17;;;4.97;;
12844;SDS011;6489;48.508;9.206;2022-11-15T20:49:48;13.70;;;4.73;;
12844;SDS011;6489;48.508;9.206;2022-11-15T20:53:11;16.73;;;5.43;;
12844;SDS011;6489;48.508;9.206;2022-11-15T20:56:35;17.40;;;5.47;;
12844;SDS011;6489;48.508;9.206;2022-11-15T20:59:57;24.67;;;5.50;;
12844;SDS011;6489;48.508;9.206;2022-11-15T21:03:19;12.23;;;2.93;;
12844;SDS011;6489;48.508;9.206;2022-11-15T21:06:43;7.37;;;2.60;;
12844;SDS011;6489;48.508;9.206;2022-11-15T21:10:07;7.73;;;2.63;;
12844;SDS011;6489;48.508;9.206;2022-11-15T21:13:50;14.53;;;3.37;;
12844;SDS011;6489;48.508;9.206;2022-11-15T21:17:12;2.67;;;2.13;;
12844;SDS011;6489;48.508;9.206;2022-11-15T21:20:35;5.50;;;2.30;;
12844;SDS011;6489;48.508;9.206;2022-11-15T21:23:58;8.97;;;2.60;;
12844;SDS011;6489;48.508;9.206;2022-11-15T21:27:20;16.77;;;3.57;;
12844;SDS011;6489;48.508;9.206;2022-11-15T21:30:52;4.93;;;2.40;;
12844;SDS011;6489;48.508;9.206;2022-11-15T21:34:15;11.73;;;3.80;;
12844;SDS011;6489;48.508;9.206;2022-11-15T21:37:37;8.50;;;5.73;;
12844;SDS011;6489;48.508;9.206;2022-11-15T21:41:01;15.37;;;5.30;;
12844;SDS011;6489;48.508;9.206;2022-11-15T21:44:24;34.23;;;5.30;;
12844;SDS011;6489;48.508;9.206;2022-11-15T21:47:47;11.87;;;5.57;;
12844;SDS011;6489;48.508;9.206;2022-11-15T21:51:10;7.70;;;4.93;;
12844;SDS011;6489;48.508;9.206;2022-11-15T21:54:33;10.47;;;5.60;;
12844;SDS011;6489;48.508;9.206;2022-11-15T21:57:55;13.83;;;6.23;;
12844;SDS011;6489;48.508;9.206;2022-11-15T22:01:17;15.23;;;5.63;;
12844;SDS011;6489;48.508;9.206;2022-11-15T22:04:59;14.10;;;5.13;;
12844;SDS011;6489;48.508;9.206;2022-11-15T22:08:23;18.50;;;5.87;;
12844;SDS011;6489;48.508;9.206;2022-11-15T22:11:46;25.27;;;5.90;;
12844;SDS011;6489;48.508;9.206;2022-11-15T22:15:09;21.20;;;5.70;;
12844;SDS011;6489;48.508;9.206;2022-11-15T22:18:33;14.83;;;6.30;;
12844;SDS011;6489;48.508;9.206;2022-11-15T22:21:57;9.27;;;6.83;;
12844;SDS011;6489;48.508;9.206;2022-11-15T22:25:19;43.87;;;8.20;;
12844;SDS011;6489;48.508;9.206;2022-11-15T22:28:42;11.77;;;6.27;;
12844;SDS011;6489;48.508;9.206;2022-11-15T22:32:05;14.23;;;6.00;;
12844;SDS011;6489;48.508;9.206;2022-11-15T22:35:27;7.63;;;5.70;;
12844;SDS011;6489;48.508;9.206;2022-11-15T22:38:52;13.13;;;6.53;;
12844;SDS011;6489;48.508;9.206;2022-11-15T22:42:16;14.53;;;6.90;;
12844;SDS011;6489;48.508;9.206;2022-11-15T22:45:45;15.33;;;7.27;;
12844;SDS011;6489;48.508;9.206;2022-11-15T22:49:07;9.57;;;7.07;;
12844;SDS011;6489;48.508;9.206;2022-11-15T22:52:30;23.47;;;8.03;;
12844;SDS011;6489;48.508;9.206;2022-11-15T22:55:54;20.53;;;8.30;;
12844;SDS011;6489;48.508;9.206;2022-11-15T22:59:17;13.83;;;7.57;;
12844;SDS011;6489;48.508;9.206;2022-11-15T23:02:40;14.27;;;7.57;;
12844;SDS011;6489;48.508;9.206;2022-11-15T23:06:03;13.17;;;7.30;;
12844;SDS011;6489;48.508;9.206;2022-11-15T23:09:25;18.27;;;7.70;;
12844;SDS011;6489;48.508;9.206;2022-11-15T23:12:49;11.70;;;7.07;;
12844;SDS011;6489;48.508;9.206;2022-11-15T23:16:29;16.37;;;7.50;;
12844;SDS011;6489;48.508;9.206;2022-11-15T23:19:54;15.43;;;7.90;;
12844;SDS011;6489;48.508;9.206;2022-11-15T23:23:17;19.70;;;8.13;;
12844;SDS011;6489;48.508;9.206;2022-11-15T23:26:39;9.03;;;6.60;;
12844;SDS011;6489;48.508;9.206;2022-11-15T23:30:03;15.47;;;6.83;;
12844;SDS011;6489;48.508;9.206;2022-11-15T23:33:43;8.10;;;5.80;;
12844;SDS011;6489;48.508;9.206;2022-11-15T23:37:18;16.13;;;6.33;;
12844;SDS011;6489;48.508;9.206;2022-11-15T23:40:40;9.63;;;6.50;;
12844;SDS011;6489;48.508;9.206;2022-11-15T23:44:04;12.10;;;5.93;;
12844;SDS011;6489;48.508;9.206;2022-11-15T23:47:28;13.60;;;6.30;;
12844;SDS011;6489;48.508;9.206;2022-11-15T23:50:51;9.10;;;6.10;;
12844;SDS011;6489;48.508;9.206;2022-11-15T23:54:13;7.80;;;5.67;;
12844;SDS011;6489;48.508;9.206;2022-11-15T23:57:36;9.93;;;5.83;;
